createdAt,value
2023-01-11T00:01:08.460Z,0.78
2023-01-11T00:04:30.173Z,0.79
2023-01-11T00:07:52.458Z,0.64
2023-01-11T00:11:07.569Z,0.69
2023-01-11T00:14:30.441Z,0.68
2023-01-11T00:17:52.460Z,0.69
2023-01-11T00:21:14.476Z,0.72
2023-01-11T00:24:36.505Z,0.73
2023-01-11T00:27:58.453Z,0.67
2023-01-11T00:31:13.583Z,0.70
2023-01-11T00:34:35.461Z,0.38
2023-01-11T00:37:57.388Z,0.52
2023-01-11T00:41:39.471Z,0.52
2023-01-11T00:45:19.446Z,0.74
2023-01-11T00:48:34.681Z,0.47
2023-01-11T00:51:56.414Z,-0.03
2023-01-11T00:55:18.409Z,0.22
2023-01-11T00:58:33.480Z,0.37
2023-01-11T01:01:55.404Z,0.37
2023-01-11T01:05:17.403Z,0.25
2023-01-11T01:08:39.443Z,-0.37
2023-01-11T01:12:01.398Z,-0.15
2023-01-11T01:15:16.679Z,-0.13
2023-01-11T01:18:38.392Z,-0.01
2023-01-11T01:22:01.530Z,-0.02
2023-01-11T01:25:23.417Z,0.16
2023-01-11T01:28:38.684Z,-0.04
2023-01-11T01:32:00.407Z,0.31
2023-01-11T01:35:15.710Z,0.01
2023-01-11T01:38:37.366Z,0.39
2023-01-11T01:41:59.397Z,0.32
2023-01-11T01:45:30.386Z,0.13
2023-01-11T01:48:57.448Z,0.29
2023-01-11T01:52:12.493Z,0.28
2023-01-11T01:55:40.383Z,0.14
2023-01-11T01:58:57.508Z,0.39
2023-01-11T02:02:19.510Z,0.29
2023-01-11T02:05:34.501Z,0.23
2023-01-11T02:09:00.398Z,0.17
2023-01-11T02:12:22.363Z,-0.07
2023-01-11T02:15:44.391Z,-0.11
2023-01-11T02:18:59.489Z,0.01
2023-01-11T02:22:29.369Z,0.02
2023-01-11T02:25:57.373Z,0.28
2023-01-11T02:29:13.116Z,0.24
2023-01-11T02:32:34.393Z,0.14
2023-01-11T02:35:49.604Z,0.02
2023-01-11T02:39:17.395Z,-0.32
2023-01-11T02:42:57.331Z,-0.06
2023-01-11T02:46:23.361Z,-0.17
2023-01-11T02:49:49.342Z,-0.07
2023-01-11T02:53:37.318Z,-0.11
2023-01-11T02:57:02.380Z,-0.17
2023-01-11T03:00:25.366Z,-0.13
2023-01-11T03:03:47.390Z,-0.14
2023-01-11T03:07:22.337Z,-0.33
2023-01-11T03:11:02.365Z,-0.27
2023-01-11T03:14:33.354Z,-0.33
2023-01-11T03:17:51.585Z,-0.18
2023-01-11T03:21:32.323Z,-0.52
2023-01-11T03:25:05.367Z,-0.68
2023-01-11T03:28:39.348Z,-0.31
2023-01-11T03:32:30.322Z,-0.13
2023-01-11T03:36:05.292Z,-0.24
2023-01-11T03:39:33.340Z,-0.21
2023-01-11T03:43:15.267Z,-0.06
2023-01-11T03:46:41.359Z,-0.11
2023-01-11T03:50:08.311Z,-0.24
2023-01-11T03:53:31.330Z,-0.16
2023-01-11T03:57:11.352Z,-0.08
2023-01-11T04:00:34.311Z,0.11
2023-01-11T04:03:56.333Z,0.16
2023-01-11T04:07:11.873Z,0.09
2023-01-11T04:10:33.281Z,-0.14
2023-01-11T04:13:55.287Z,-0.22
2023-01-11T04:17:10.434Z,-0.16
2023-01-11T04:20:32.265Z,0.03
2023-01-11T04:23:54.301Z,0.14
2023-01-11T04:27:09.513Z,0.12
2023-01-11T04:30:31.321Z,0.14
2023-01-11T04:33:46.501Z,-0.05
2023-01-11T04:37:08.336Z,0.12
2023-01-11T04:40:31.291Z,0.12
2023-01-11T04:43:46.433Z,0.00
2023-01-11T04:47:08.286Z,0.04
2023-01-11T04:50:30.291Z,-0.17
2023-01-11T04:53:53.263Z,-0.22
2023-01-11T04:57:15.302Z,-0.03
2023-01-11T05:00:30.518Z,0.05
2023-01-11T05:03:52.292Z,0.04
2023-01-11T05:07:08.213Z,-0.12
2023-01-11T05:10:30.241Z,0.04
2023-01-11T05:13:52.250Z,-0.24
2023-01-11T05:17:07.352Z,-0.17
2023-01-11T05:20:29.264Z,-0.05
2023-01-11T05:23:51.247Z,-0.16
2023-01-11T05:27:06.508Z,0.06
2023-01-11T05:30:28.257Z,-0.06
2023-01-11T05:33:43.447Z,0.09
2023-01-11T05:37:05.304Z,0.09
2023-01-11T05:40:20.441Z,0.05
2023-01-11T05:44:03.277Z,0.02
2023-01-11T05:47:18.429Z,0.15
2023-01-11T05:50:40.227Z,0.24
2023-01-11T05:53:55.471Z,0.12
2023-01-11T05:57:18.236Z,0.26
2023-01-11T06:00:40.289Z,0.22
2023-01-11T06:03:55.365Z,0.01
2023-01-11T06:07:17.261Z,-0.02
2023-01-11T06:10:39.274Z,-0.03
2023-01-11T06:13:54.467Z,0.02
2023-01-11T06:17:16.258Z,0.01
2023-01-11T06:20:31.415Z,0.16
2023-01-11T06:23:54.190Z,0.05
2023-01-11T06:27:16.245Z,-0.07
2023-01-11T06:30:38.253Z,0.00
2023-01-11T06:34:00.254Z,-0.04
2023-01-11T06:37:22.205Z,-0.01
2023-01-11T06:40:38.345Z,0.11
2023-01-11T06:44:00.219Z,0.00
2023-01-11T06:47:22.208Z,0.01
2023-01-11T06:50:37.351Z,0.08
2023-01-11T06:53:59.229Z,0.13
2023-01-11T06:57:21.171Z,0.22
2023-01-11T07:00:37.723Z,0.20
2023-01-11T07:03:59.188Z,0.24
2023-01-11T07:07:14.428Z,0.39
2023-01-11T07:10:36.182Z,0.27
2023-01-11T07:13:51.441Z,0.42
2023-01-11T07:17:13.177Z,0.35
2023-01-11T07:20:35.183Z,0.40
2023-01-11T07:23:50.311Z,0.45
2023-01-11T07:27:12.165Z,0.33
2023-01-11T07:30:41.921Z,0.34
2023-01-11T07:34:07.419Z,0.39
2023-01-11T07:37:29.657Z,0.44
2023-01-11T07:40:44.417Z,0.43
2023-01-11T07:44:06.164Z,0.41
2023-01-11T07:47:21.456Z,0.47
2023-01-11T07:50:45.111Z,0.50
2023-01-11T07:54:09.183Z,0.57
2023-01-11T07:57:24.284Z,0.63
2023-01-11T08:00:47.118Z,0.49
2023-01-11T08:04:09.140Z,0.71
2023-01-11T08:07:31.161Z,0.74
2023-01-11T08:10:46.263Z,0.83
2023-01-11T08:14:26.180Z,0.95
2023-01-11T08:17:41.307Z,1.05
2023-01-11T08:21:03.136Z,0.28
2023-01-11T08:24:25.156Z,0.44
2023-01-11T08:27:40.776Z,0.89
2023-01-11T08:31:02.171Z,0.51
2023-01-11T08:34:17.480Z,0.58
2023-01-11T08:37:39.151Z,0.73
2023-01-11T08:40:54.385Z,1.00
2023-01-11T08:44:22.355Z,1.22
2023-01-11T08:47:57.139Z,1.24
2023-01-11T08:51:19.143Z,1.28
2023-01-11T08:54:34.367Z,1.37
2023-01-11T08:57:56.153Z,1.18
2023-01-11T09:01:12.482Z,1.30
2023-01-11T09:04:34.125Z,1.40
2023-01-11T09:07:49.325Z,1.40
2023-01-11T09:11:31.154Z,1.66
2023-01-11T09:14:46.274Z,1.58
2023-01-11T09:18:09.123Z,1.75
2023-01-11T09:21:24.403Z,1.73
2023-01-11T09:24:46.155Z,1.68
2023-01-11T09:28:01.289Z,2.02
2023-01-11T09:31:23.140Z,2.08
2023-01-11T09:34:46.888Z,1.97
2023-01-11T09:38:09.072Z,1.77
2023-01-11T09:41:35.161Z,1.93
2023-01-11T09:45:06.079Z,2.05
2023-01-11T09:48:33.253Z,1.91
2023-01-11T09:51:55.105Z,1.64
2023-01-11T09:55:22.054Z,1.72
2023-01-11T09:58:43.294Z,1.88
2023-01-11T10:02:12.103Z,1.85
2023-01-11T10:05:38.220Z,1.92
2023-01-11T10:18:27.482Z,1.77
2023-01-11T10:20:50.063Z,1.86
2023-01-11T10:24:15.043Z,1.90
2023-01-11T10:27:39.176Z,1.99
2023-01-11T10:31:05.127Z,1.71
2023-01-11T10:34:48.035Z,1.76
2023-01-11T10:38:28.073Z,1.49
2023-01-11T10:42:06.040Z,1.60
2023-01-11T10:45:32.080Z,1.61
2023-01-11T10:48:50.205Z,1.69
2023-01-11T10:52:40.035Z,1.75
2023-01-11T10:56:02.033Z,1.78
2023-01-11T10:59:31.671Z,1.49
2023-01-11T11:03:08.073Z,1.42
2023-01-11T11:06:32.767Z,1.57
2023-01-11T11:09:54.045Z,1.29
2023-01-11T11:13:16.075Z,1.40
2023-01-11T11:16:31.228Z,1.37
2023-01-11T11:19:53.101Z,1.48
2023-01-11T11:23:08.206Z,1.50
2023-01-11T11:26:31.035Z,1.22
2023-01-11T11:29:50.159Z,1.35
2023-01-11T11:33:26.060Z,1.19
2023-01-11T11:37:14.074Z,1.07
2023-01-11T11:40:36.644Z,1.13
2023-01-11T11:43:59.063Z,1.24
2023-01-11T11:47:15.292Z,1.21
2023-01-11T11:50:44.763Z,1.16
2023-01-11T11:54:00.958Z,1.17
2023-01-11T11:57:30.067Z,1.13
2023-01-11T12:00:47.555Z,1.29
2023-01-11T12:04:10.995Z,1.18
2023-01-11T12:07:53.559Z,1.31
2023-01-11T12:11:18.017Z,1.31
2023-01-11T12:14:35.180Z,1.27
2023-01-11T12:17:57.061Z,1.52
2023-01-11T12:21:15.015Z,1.17
2023-01-11T12:24:37.008Z,1.38
2023-01-11T12:28:03.301Z,1.31
2023-01-11T12:31:30.977Z,1.15
2023-01-11T12:35:07.995Z,1.47
2023-01-11T12:38:29.164Z,1.27
2023-01-11T12:41:56.953Z,1.06
2023-01-11T12:45:24.995Z,1.46
2023-01-11T12:48:46.979Z,1.22
2023-01-11T12:52:08.107Z,1.37
2023-01-11T12:55:38.026Z,1.21
2023-01-11T12:59:05.009Z,1.32
2023-01-11T13:02:36.344Z,1.27
2023-01-11T13:05:57.973Z,1.30
2023-01-11T13:09:14.853Z,1.10
2023-01-11T13:12:37.981Z,0.96
2023-01-11T13:16:06.915Z,0.92
2023-01-11T13:19:32.985Z,1.05
2023-01-11T13:23:08.459Z,1.12
2023-01-11T13:26:42.032Z,1.07
2023-01-11T13:29:59.939Z,1.20
2023-01-11T13:33:27.006Z,1.33
2023-01-11T13:36:47.539Z,1.51
2023-01-11T13:40:29.213Z,1.40
2023-01-11T13:43:59.997Z,1.41
2023-01-11T13:47:25.944Z,1.41
2023-01-11T13:50:46.913Z,1.42
2023-01-11T13:54:17.960Z,1.60
2023-01-11T13:58:11.998Z,1.59
2023-01-11T14:01:31.070Z,1.51
2023-01-11T14:04:59.934Z,1.44
2023-01-11T14:08:15.042Z,1.40
2023-01-11T14:11:54.912Z,1.27
2023-01-11T14:15:26.572Z,1.47
2023-01-11T14:19:02.949Z,1.39
2023-01-11T14:22:26.941Z,1.27
2023-01-11T14:25:51.951Z,0.97
2023-01-11T14:29:16.274Z,1.18
2023-01-11T14:32:43.874Z,1.12
2023-01-11T14:36:17.950Z,1.26
2023-01-11T14:39:48.916Z,1.25
2023-01-11T14:43:07.033Z,1.17
2023-01-11T14:46:48.990Z,1.07
2023-01-11T14:50:05.047Z,0.80
2023-01-11T14:53:29.878Z,1.03
2023-01-11T14:56:57.938Z,1.16
2023-01-11T15:00:25.965Z,1.16
2023-01-11T15:03:59.911Z,1.01
2023-01-11T15:07:22.594Z,1.08
2023-01-11T15:10:43.905Z,1.27
2023-01-11T15:14:07.919Z,1.14
2023-01-11T15:17:42.833Z,1.13
2023-01-11T15:21:04.919Z,1.14
2023-01-11T15:24:32.107Z,0.87
2023-01-11T15:27:53.922Z,0.89
2023-01-11T15:31:12.035Z,1.07
2023-01-11T15:34:34.893Z,0.97
2023-01-11T15:37:59.044Z,0.87
2023-01-11T15:41:42.876Z,0.90
2023-01-11T15:45:23.912Z,0.88
2023-01-11T15:48:39.060Z,0.79
2023-01-11T15:52:06.839Z,0.64
2023-01-11T15:55:28.881Z,0.30
2023-01-11T15:58:56.021Z,0.48
2023-01-11T16:02:20.844Z,0.47
2023-01-11T16:05:49.852Z,0.41
2023-01-11T16:09:33.019Z,0.39
2023-01-11T16:13:09.830Z,-0.06
2023-01-11T16:16:40.880Z,0.25
2023-01-11T16:19:57.118Z,0.28
2023-01-11T16:23:26.897Z,0.29
2023-01-11T16:26:49.892Z,0.06
2023-01-11T16:30:05.500Z,0.24
2023-01-11T16:33:47.204Z,-0.35
2023-01-11T16:37:24.860Z,-0.03
2023-01-11T16:40:50.839Z,-0.02
2023-01-11T16:44:13.872Z,0.14
2023-01-11T16:47:29.057Z,-0.12
2023-01-11T16:51:04.855Z,-0.06
2023-01-11T16:54:23.200Z,0.20
2023-01-11T16:57:46.911Z,0.28
2023-01-11T17:01:10.026Z,0.21
2023-01-11T17:04:26.710Z,0.33
2023-01-11T17:07:48.781Z,0.36
2023-01-11T17:11:13.819Z,0.37
2023-01-11T17:15:01.841Z,0.24
2023-01-11T17:18:17.563Z,0.10
2023-01-11T17:21:39.808Z,0.23
2023-01-11T17:25:03.845Z,0.22
2023-01-11T17:28:32.816Z,0.30
2023-01-11T17:31:54.832Z,0.24
2023-01-11T17:35:20.153Z,0.20
2023-01-11T17:38:41.818Z,0.17
2023-01-11T17:42:19.963Z,0.18
2023-01-11T17:45:42.933Z,0.10
2023-01-11T17:48:58.959Z,0.11
2023-01-11T17:52:26.819Z,-0.06
2023-01-11T17:55:48.783Z,0.21
2023-01-11T17:59:28.813Z,0.18
2023-01-11T18:02:45.946Z,-0.04
2023-01-11T18:06:16.784Z,0.03
2023-01-11T18:09:42.826Z,-0.05
2023-01-11T18:13:05.759Z,-0.03
2023-01-11T18:16:24.196Z,0.10
2023-01-11T18:19:47.761Z,0.14
2023-01-11T18:23:09.807Z,0.12
2023-01-11T18:26:35.770Z,0.14
2023-01-11T18:29:57.764Z,0.21
2023-01-11T18:33:25.764Z,0.24
2023-01-11T18:36:47.810Z,0.14
2023-01-11T18:40:03.350Z,0.21
2023-01-11T18:43:24.788Z,0.20
2023-01-11T18:46:46.779Z,0.28
2023-01-11T18:50:08.749Z,0.32
2023-01-11T18:53:30.775Z,0.29
2023-01-11T18:56:45.864Z,0.39
2023-01-11T19:00:07.764Z,0.30
2023-01-11T19:03:29.761Z,0.22
2023-01-11T19:06:44.984Z,0.20
2023-01-11T19:10:06.733Z,0.08
2023-01-11T19:13:29.763Z,0.23
2023-01-11T19:16:44.852Z,0.21
2023-01-11T19:20:06.786Z,0.11
2023-01-11T19:23:28.774Z,0.18
2023-01-11T19:26:43.972Z,0.08
2023-01-11T19:30:05.774Z,0.39
2023-01-11T19:33:27.708Z,0.44
2023-01-11T19:36:42.867Z,0.47
2023-01-11T19:40:04.748Z,0.41
2023-01-11T19:43:26.762Z,0.26
2023-01-11T19:46:42.047Z,0.38
2023-01-11T19:50:05.728Z,0.36
2023-01-11T19:53:20.931Z,0.25
2023-01-11T19:56:42.710Z,0.40
2023-01-11T20:00:04.760Z,0.51
2023-01-11T20:03:22.813Z,0.43
2023-01-11T20:06:48.736Z,0.57
2023-01-11T20:10:10.721Z,0.63
2023-01-11T20:13:25.976Z,0.68
2023-01-11T20:16:47.723Z,0.61
2023-01-11T20:20:09.694Z,0.60
2023-01-11T20:23:32.711Z,0.51
2023-01-11T20:26:47.976Z,0.45
2023-01-11T20:30:09.703Z,0.50
2023-01-11T20:33:34.712Z,0.48
2023-01-11T20:36:56.709Z,0.46
2023-01-11T20:40:14.240Z,0.74
2023-01-11T20:43:35.697Z,0.68
2023-01-11T20:46:58.703Z,0.66
2023-01-11T20:50:13.815Z,0.58
2023-01-11T20:53:35.685Z,0.73
2023-01-11T20:56:50.801Z,0.60
2023-01-11T21:00:15.687Z,0.48
2023-01-11T21:03:37.692Z,0.47
2023-01-11T21:06:52.887Z,0.51
2023-01-11T21:10:15.688Z,0.45
2023-01-11T21:13:37.680Z,0.43
2023-01-11T21:16:55.206Z,0.44
2023-01-11T21:20:16.662Z,0.59
2023-01-11T21:23:38.682Z,0.39
2023-01-11T21:26:53.983Z,0.55
2023-01-11T21:30:15.675Z,0.53
2023-01-11T21:33:38.597Z,0.62
2023-01-11T21:36:53.772Z,0.45
2023-01-11T21:40:15.641Z,0.60
2023-01-11T21:43:30.768Z,0.70
2023-01-11T21:46:52.710Z,0.58
2023-01-11T21:50:14.665Z,0.66
2023-01-11T21:53:37.703Z,0.76
2023-01-11T21:56:59.635Z,0.70
2023-01-11T22:00:21.628Z,0.53
2023-01-11T22:03:43.681Z,0.61
2023-01-11T22:07:06.633Z,0.53
2023-01-11T22:10:28.667Z,0.50
2023-01-11T22:13:44.010Z,0.63
2023-01-11T22:17:05.629Z,0.61
2023-01-11T22:20:27.651Z,0.59
2023-01-11T22:23:42.738Z,0.54
2023-01-11T22:27:04.697Z,0.59
2023-01-11T22:30:19.825Z,0.52
2023-01-11T22:33:42.624Z,0.55
2023-01-11T22:37:04.657Z,0.50
2023-01-11T22:40:26.590Z,0.42
2023-01-11T22:43:49.634Z,0.35
2023-01-11T22:47:11.635Z,0.37
2023-01-11T22:50:33.627Z,0.55
2023-01-11T22:53:56.590Z,0.61
2023-01-11T22:57:18.614Z,0.44
2023-01-11T23:00:40.651Z,0.66
2023-01-11T23:03:55.781Z,0.47
2023-01-11T23:07:17.619Z,0.49
2023-01-11T23:10:32.676Z,0.71
2023-01-11T23:14:08.623Z,0.61
2023-01-11T23:17:30.561Z,0.46
2023-01-11T23:20:45.992Z,0.66
2023-01-11T23:24:07.620Z,0.75
2023-01-11T23:27:22.828Z,0.69
2023-01-11T23:30:44.549Z,0.70
2023-01-11T23:34:07.601Z,0.66
2023-01-11T23:37:22.736Z,0.60
2023-01-11T23:41:02.547Z,0.52
2023-01-11T23:44:25.584Z,0.56
2023-01-11T23:47:47.617Z,0.52
2023-01-11T23:51:16.573Z,0.54
2023-01-11T23:54:39.594Z,0.54
2023-01-11T23:58:16.542Z,0.48
